Terminal Aerodrome Forecast
Issued by NWS

Home | Current Version | Previous Version | Text Only | Print | Product List | Glossary On
Versions: 1 2 3 4 5 6 7 8 9 10 11 12 13 14 15
000
FTUS41 KBTV 231731
TAFPBG
TAF
KPBG 231731Z 2318/2418 15011KT P6SM SKC
     FM240300 VRB06KT P6SM SCT090
     FM240700 32007KT P6SM BKN060
     FM240900 33008KT P6SM BKN035
     FM241500 01008KT P6SM OVC035=

USA.gov is the U.S. government's official web portal to all federal, state and local government web resources and services.